Welcome to Des Moines Iowa Weather. I am an independent private personal weather station on the Northwest Side of Des Moines, Iowa. Just East of Windsor Heights and just West of Glendale . This site is also mobile friendly.

There are no active watches, warnings or advisories


Visit our other weather sites:

Historical Data

Weather Station Setup



Weather Underground History page Text

Daily Summary for November 1, 2017 Units:  English    Metric   Both
« Previous Day
Next Day »
Daily Weekly Monthly Yearly Custom
  High: Low: Average:
Temperature: 48.1 °F 32.4 °F 39.8 °F
Dew Point: 42.0 °F 23.0 °F 32.7 °F
Humidity: 89 % 66 % 76 %
Wind Speed: 5.0 mph 0.0 mph 0.9 mph
Wind Gust: 12.0 mph - -
Wind:- - South
Pressure: 29.99 in 29.61 in -
Precipitation: 0.00 in    
Historical Graphs
 
 
Tabular Data for November 1, 2017
Time Temperature Dew Point Pressure Wind Wind Speed Wind Gust Humidity Rainfall Rate (Hourly)
00:12 33.1 °F 23.0 °F 29.98 in Calm   3.0 mph 66 % 0.00 in
00:27 33.0 °F 23.0 °F 29.99 in Calm   2.0 mph 67 % 0.00 in
00:42 33.0 °F 23.0 °F 29.99 in Calm   3.0 mph 68 % 0.00 in
00:57 32.9 °F 24.0 °F 29.98 in Calm   1.0 mph 69 % 0.00 in
01:12 32.8 °F 24.0 °F 29.98 in Calm   3.0 mph 69 % 0.00 in
01:27 32.8 °F 24.0 °F 29.97 in Calm   1.0 mph 70 % 0.00 in
01:46 32.6 °F 24.0 °F 29.96 in Calm   2.0 mph 70 % 0.00 in
02:01 32.5 °F 24.0 °F 29.96 in Calm   2.0 mph 71 % 0.00 in
02:17 32.5 °F 24.0 °F 29.95 in Calm   2.0 mph 71 % 0.00 in
02:31 32.5 °F 24.0 °F 29.94 in Calm   4.0 mph 72 % 0.00 in
02:47 32.4 °F 24.0 °F 29.94 in Calm   2.0 mph 72 % 0.00 in
03:02 32.4 °F 24.0 °F 29.94 in WSW 1.0 mph 4.0 mph 72 % 0.00 in
03:17 32.5 °F 24.0 °F 29.94 in Calm   2.0 mph 72 % 0.00 in
03:32 32.5 °F 24.0 °F 29.94 in Calm   2.0 mph 71 % 0.00 in
03:47 32.6 °F 24.0 °F 29.92 in WSW 1.0 mph 2.0 mph 71 % 0.00 in
04:02 32.6 °F 24.0 °F 29.92 in Calm   4.0 mph 71 % 0.00 in
04:16 32.7 °F 24.0 °F 29.91 in Calm   2.0 mph 71 % 0.00 in
04:31 32.6 °F 24.0 °F 29.91 in WSW 1.0 mph 3.0 mph 70 % 0.00 in
04:46 32.5 °F 24.0 °F 29.91 in Calm   3.0 mph 70 % 0.00 in
05:01 32.5 °F 24.0 °F 29.89 in Calm   3.0 mph 70 % 0.00 in
05:16 32.5 °F 24.0 °F 29.89 in Calm   5.0 mph 70 % 0.00 in
05:31 32.5 °F 23.0 °F 29.89 in South 2.0 mph 5.0 mph 69 % 0.00 in
05:46 32.6 °F 23.0 °F 29.87 in Calm   7.0 mph 68 % 0.00 in
06:01 32.6 °F 23.0 °F 29.87 in Calm   3.0 mph 69 % 0.00 in
06:16 32.7 °F 24.0 °F 29.85 in South 5.0 mph 5.0 mph 69 % 0.00 in
06:23 32.7 °F 24.0 °F 29.84 in Calm   7.0 mph 69 % 0.00 in
06:38 32.7 °F 24.0 °F 29.84 in Calm   6.0 mph 69 % 0.00 in
06:53 32.7 °F 24.0 °F 29.84 in South 1.0 mph 3.0 mph 69 % 0.00 in
07:08 32.9 °F 23.0 °F 29.84 in Calm   5.0 mph 68 % 0.00 in
07:23 33.1 °F 24.0 °F 29.83 in ENE 1.0 mph 3.0 mph 69 % 0.00 in
07:38 33.4 °F 24.0 °F 29.82 in SE 2.0 mph 4.0 mph 69 % 0.00 in
07:53 33.6 °F 25.0 °F 29.82 in Calm   5.0 mph 70 % 0.00 in
08:08 33.7 °F 25.0 °F 29.82 in SE 2.0 mph 5.0 mph 70 % 0.00 in
08:23 33.9 °F 25.0 °F 29.80 in SE 4.0 mph 5.0 mph 71 % 0.00 in
08:38 34.2 °F 26.0 °F 29.80 in SSE 2.0 mph 6.0 mph 72 % 0.00 in
08:53 34.5 °F 27.0 °F 29.80 in Calm   7.0 mph 73 % 0.00 in
09:08 34.7 °F 27.0 °F 29.80 in WSW 1.0 mph 4.0 mph 73 % 0.00 in
09:23 35.0 °F 28.0 °F 29.80 in North 2.0 mph 4.0 mph 74 % 0.00 in
09:38 35.3 °F 28.0 °F 29.79 in West 2.0 mph 4.0 mph 74 % 0.00 in
09:54 35.7 °F 29.0 °F 29.78 in SE 1.0 mph 5.0 mph 75 % 0.00 in
10:08 36.0 °F 29.0 °F 29.80 in SE 1.0 mph 5.0 mph 76 % 0.00 in
10:23 36.5 °F 30.0 °F 29.78 in SSE 2.0 mph 6.0 mph 76 % 0.00 in
10:38 37.0 °F 30.0 °F 29.77 in SSE 3.0 mph 6.0 mph 77 % 0.00 in
10:54 37.4 °F 31.0 °F 29.77 in ESE 2.0 mph 5.0 mph 77 % 0.00 in
11:09 37.8 °F 32.0 °F 29.77 in North 1.0 mph 8.0 mph 78 % 0.00 in
11:24 38.2 °F 32.0 °F 29.76 in SSE 1.0 mph 6.0 mph 79 % 0.00 in
11:39 38.6 °F 33.0 °F 29.75 in Calm   6.0 mph 80 % 0.00 in
11:47 38.7 °F 33.0 °F 29.73 in SSE 4.0 mph 7.0 mph 80 % 0.00 in
12:02 39.1 °F 34.0 °F 29.72 in ESE 2.0 mph 7.0 mph 81 % 0.00 in
12:18 39.8 °F 34.0 °F 29.71 in South 3.0 mph 9.0 mph 81 % 0.00 in
12:32 40.7 °F 35.0 °F 29.72 in Calm   7.0 mph 79 % 0.00 in
12:47 41.4 °F 35.0 °F 29.71 in South 3.0 mph 12.0 mph 78 % 0.00 in
13:03 42.1 °F 35.0 °F 29.69 in SSE 3.0 mph 9.0 mph 77 % 0.00 in
13:18 42.9 °F 36.0 °F 29.68 in SSE 3.0 mph 8.0 mph 77 % 0.00 in
13:33 43.5 °F 36.0 °F 29.66 in SSE 1.0 mph 5.0 mph 76 % 0.00 in
13:48 44.2 °F 37.0 °F 29.67 in ESE 1.0 mph 6.0 mph 75 % 0.00 in
14:03 44.7 °F 37.0 °F 29.66 in SE 2.0 mph 5.0 mph 75 % 0.00 in
14:18 45.1 °F 38.0 °F 29.66 in ESE 2.0 mph 6.0 mph 75 % 0.00 in
14:33 45.6 °F 38.0 °F 29.66 in SSW 3.0 mph 9.0 mph 75 % 0.00 in
14:43 46.1 °F 39.0 °F 29.64 in South 2.0 mph 6.0 mph 75 % 0.00 in
14:58 46.7 °F 39.0 °F 29.65 in Calm   5.0 mph 74 % 0.00 in
15:13 47.2 °F 39.0 °F 29.63 in SSW 1.0 mph 3.0 mph 73 % 0.00 in
15:28 47.6 °F 39.0 °F 29.61 in SSE 2.0 mph 6.0 mph 72 % 0.00 in
15:43 48.0 °F 39.0 °F 29.64 in Calm   6.0 mph 72 % 0.00 in
15:58 48.1 °F 39.0 °F 29.65 in North 2.0 mph 6.0 mph 72 % 0.00 in
16:13 48.0 °F 39.0 °F 29.64 in North 1.0 mph 5.0 mph 72 % 0.00 in
16:29 47.9 °F 40.0 °F 29.66 in SSW 3.0 mph 7.0 mph 73 % 0.00 in
16:44 47.8 °F 40.0 °F 29.65 in Calm   5.0 mph 74 % 0.00 in
16:59 47.7 °F 40.0 °F 29.65 in West 3.0 mph 3.0 mph 74 % 0.00 in
17:14 47.4 °F 40.0 °F 29.65 in SW 1.0 mph 4.0 mph 75 % 0.00 in
17:29 47.3 °F 40.0 °F 29.66 in Calm   7.0 mph 76 % 0.00 in
17:44 47.1 °F 40.0 °F 29.66 in Calm   5.0 mph 77 % 0.00 in
17:59 46.9 °F 40.0 °F 29.66 in SW 2.0 mph 5.0 mph 78 % 0.00 in
18:14 46.7 °F 40.0 °F 29.65 in Calm   6.0 mph 78 % 0.00 in
18:29 46.5 °F 40.0 °F 29.66 in Calm   8.0 mph 79 % 0.00 in
18:44 46.4 °F 41.0 °F 29.66 in Calm   3.0 mph 80 % 0.00 in
18:59 46.3 °F 40.0 °F 29.67 in Calm   4.0 mph 80 % 0.00 in
19:14 46.2 °F 41.0 °F 29.67 in Calm   3.0 mph 81 % 0.00 in
19:29 46.1 °F 41.0 °F 29.68 in SW 2.0 mph 7.0 mph 82 % 0.00 in
19:44 46.1 °F 41.0 °F 29.68 in Calm   5.0 mph 83 % 0.00 in
19:59 46.1 °F 41.0 °F 29.68 in Calm   1.0 mph 83 % 0.00 in
20:14 46.1 °F 41.0 °F 29.69 in Calm   3.0 mph 83 % 0.00 in
20:29 46.0 °F 41.0 °F 29.69 in Calm   3.0 mph 84 % 0.00 in
20:44 46.0 °F 42.0 °F 29.70 in SSW 1.0 mph 3.0 mph 85 % 0.00 in
20:59 46.0 °F 42.0 °F 29.70 in Calm   3.0 mph 86 % 0.00 in
21:14 46.0 °F 42.0 °F 29.70 in Calm   1.0 mph 86 % 0.00 in
21:29 45.8 °F 42.0 °F 29.71 in Calm     86 % 0.00 in
21:44 45.8 °F 42.0 °F 29.72 in Calm   2.0 mph 86 % 0.00 in
21:59 45.7 °F 42.0 °F 29.72 in Calm   3.0 mph 86 % 0.00 in
22:14 45.6 °F 42.0 °F 29.73 in Calm   3.0 mph 87 % 0.00 in
22:29 45.6 °F 42.0 °F 29.74 in Calm     87 % 0.00 in
22:44 45.6 °F 42.0 °F 29.75 in Calm     88 % 0.00 in
22:59 45.5 °F 42.0 °F 29.74 in Calm     88 % 0.00 in
23:14 45.4 °F 42.0 °F 29.74 in Calm     88 % 0.00 in
23:29 45.2 °F 42.0 °F 29.74 in Calm     88 % 0.00 in
23:44 44.9 °F 42.0 °F 29.75 in Calm     88 % 0.00 in
23:59 44.7 °F 42.0 °F 29.75 in Calm     89 % 0.00 in
Des Moines Weather and Climate
Compliments of Weather Underground - 3 mb

Script developed by  Jim McMurry - jmcmurry@mwt.net Adapted for the template by  Wim van der Kuil - Leuven-Template.eu

You find our weather info also at:

Weather Underground

Equipment we use:

Weather-station
Davis VP2 Plus

Weather-program
Davis Weatherlink.Com

Weather-server
iMac (Retina 4K, 21.5-inch, Late 2015)

Provider
Hostmonster.com

Davis VP2 Plus

Davis Weatherlink.Com

iMac (Retina 4K, 21.5-inch, Late 2015)

Hostmonster.com